Time;durP1;ratioP1;P1;durP2;ratioP2;P2;SDS_P1;SDS_P2;PMS_P1;PMS_P2;Temp;Humidity;BMP_temperature;BMP_pressure;BME280_temperature;BME280_humidity;BME280_pressure;Samples;Min_cycle;Max_cycle;Signal;HPM_P1;HPM_P2
2022/02/27 00:01:48;;;;;;;7.40;3.97;;;;;;;;;;5035371;28;20030;-65
2022/02/27 00:04:14;;;;;;;7.30;4.10;;;;;;;;;;5035169;28;20029;-65
2022/02/27 00:06:40;;;;;;;6.35;3.97;;;;;;;;;;5035114;28;20041;-64
2022/02/27 00:09:06;;;;;;;7.57;3.65;;;;;;;;;;5028290;28;20066;-72
2022/02/27 00:11:32;;;;;;;7.13;3.85;;;;;;;;;;5014628;28;20069;-65
2022/02/27 00:13:58;;;;;;;13.73;5.18;;;;;;;;;;5026543;28;20108;-65
2022/02/27 00:16:24;;;;;;;11.38;5.05;;;;;;;;;;5035039;28;20105;-65
2022/02/27 00:18:50;;;;;;;11.60;5.50;;;;;;;;;;5034803;28;20030;-65
2022/02/27 00:21:16;;;;;;;15.43;5.45;;;;;;;;;;5034253;28;20033;-65
2022/02/27 00:23:42;;;;;;;10.50;5.35;;;;;;;;;;5034822;28;20114;-65
2022/02/27 00:26:08;;;;;;;10.95;5.20;;;;;;;;;;5035012;28;20018;-65
2022/02/27 00:28:34;;;;;;;10.98;5.10;;;;;;;;;;5034491;28;20389;-65
2022/02/27 00:31:00;;;;;;;13.77;6.03;;;;;;;;;;5034194;28;20100;-65
2022/02/27 00:33:26;;;;;;;11.95;5.88;;;;;;;;;;5034555;28;20048;-65
2022/02/27 00:35:53;;;;;;;13.57;6.30;;;;;;;;;;5023723;28;20026;-65
2022/02/27 00:38:18;;;;;;;14.88;5.97;;;;;;;;;;5014300;28;20116;-65
2022/02/27 00:40:44;;;;;;;12.15;6.00;;;;;;;;;;5014030;28;20097;-65
2022/02/27 00:43:10;;;;;;;12.18;5.75;;;;;;;;;;5014266;28;20088;-66
2022/02/27 00:45:37;;;;;;;16.80;6.32;;;;;;;;;;5005008;28;20029;-66
2022/02/27 00:48:03;;;;;;;14.60;6.05;;;;;;;;;;5016219;28;20120;-66
2022/02/27 00:50:29;;;;;;;14.02;5.70;;;;;;;;;;5033692;28;20053;-66
2022/02/27 00:52:54;;;;;;;11.82;5.40;;;;;;;;;;5033636;28;20057;-67
2022/02/27 00:55:20;;;;;;;12.00;5.88;;;;;;;;;;5033710;28;20029;-66
2022/02/27 00:57:46;;;;;;;10.63;6.32;;;;;;;;;;5016142;28;20034;-66
2022/02/27 01:00:13;;;;;;;13.77;6.25;;;;;;;;;;5034028;28;20069;-66
2022/02/27 01:02:39;;;;;;;10.68;5.80;;;;;;;;;;4989499;28;20045;-66
2022/02/27 01:05:05;;;;;;;11.27;6.32;;;;;;;;;;5033504;28;20034;-66
2022/02/27 01:07:31;;;;;;;12.32;6.50;;;;;;;;;;5033459;28;20025;-65
2022/02/27 01:09:57;;;;;;;13.25;5.82;;;;;;;;;;5033546;28;20076;-65
2022/02/27 01:12:23;;;;;;;15.52;6.63;;;;;;;;;;5033397;28;20038;-65
2022/02/27 01:14:49;;;;;;;13.63;6.10;;;;;;;;;;5033393;28;20027;-65
2022/02/27 01:17:15;;;;;;;14.38;6.32;;;;;;;;;;5031993;28;20049;-65
2022/02/27 01:19:41;;;;;;;13.27;6.70;;;;;;;;;;5005511;28;20106;-65
2022/02/27 01:22:07;;;;;;;10.55;5.50;;;;;;;;;;4993892;28;20113;-64
2022/02/27 01:24:33;;;;;;;12.45;6.05;;;;;;;;;;4993288;28;20030;-64
2022/02/27 01:26:59;;;;;;;15.48;5.72;;;;;;;;;;4993810;28;20026;-64
2022/02/27 01:29:25;;;;;;;13.43;6.90;;;;;;;;;;4993727;28;20359;-65
2022/02/27 01:31:51;;;;;;;11.52;6.15;;;;;;;;;;4993504;28;20066;-64
2022/02/27 01:34:17;;;;;;;12.43;6.03;;;;;;;;;;4993710;28;20248;-65
2022/02/27 01:36:43;;;;;;;16.05;6.55;;;;;;;;;;5010905;28;20465;-65
2022/02/27 01:39:09;;;;;;;12.43;5.88;;;;;;;;;;5013115;28;20036;-66
2022/02/27 01:41:35;;;;;;;12.98;6.07;;;;;;;;;;5013386;28;20430;-66
2022/02/27 01:44:01;;;;;;;13.27;5.97;;;;;;;;;;5013136;28;20030;-64
2022/02/27 01:46:27;;;;;;;10.18;5.68;;;;;;;;;;5012894;28;20378;-64
2022/02/27 01:48:53;;;;;;;12.07;6.40;;;;;;;;;;5013101;28;20033;-63
2022/02/27 01:51:19;;;;;;;16.58;6.43;;;;;;;;;;5012163;28;20022;-64
2022/02/27 01:53:45;;;;;;;14.30;6.13;;;;;;;;;;5023363;28;20034;-64
2022/02/27 01:56:12;;;;;;;13.52;6.68;;;;;;;;;;5032806;28;20461;-64
2022/02/27 01:58:38;;;;;;;11.23;5.93;;;;;;;;;;5032569;28;20033;-65
2022/02/27 02:01:04;;;;;;;13.65;6.13;;;;;;;;;;5028660;28;20033;-65
2022/02/27 02:03:30;;;;;;;13.65;5.82;;;;;;;;;;5012672;28;20043;-65
2022/02/27 02:05:56;;;;;;;11.45;5.35;;;;;;;;;;5012906;28;20042;-65
2022/02/27 02:08:22;;;;;;;12.00;5.85;;;;;;;;;;5013334;28;20038;-64
2022/02/27 02:10:48;;;;;;;14.20;6.22;;;;;;;;;;5013401;28;20022;-63
2022/02/27 02:13:14;;;;;;;12.18;6.03;;;;;;;;;;4995451;28;20042;-64
2022/02/27 02:15:40;;;;;;;13.13;5.35;;;;;;;;;;5012940;28;20026;-64
2022/02/27 02:18:09;;;;;;;13.13;5.47;;;;;;;;;;5012174;28;20045;-64
2022/02/27 02:20:36;;;;;;;10.68;5.78;;;;;;;;;;5019735;28;20033;-64
2022/02/27 02:23:02;;;;;;;12.13;5.80;;;;;;;;;;5025345;28;20030;-64
2022/02/27 02:25:28;;;;;;;11.18;5.55;;;;;;;;;;5032391;28;20060;-63
2022/02/27 02:27:54;;;;;;;12.07;5.75;;;;;;;;;;5032486;28;20053;-62
2022/02/27 02:30:20;;;;;;;11.55;5.97;;;;;;;;;;5032346;28;20338;-63
2022/02/27 02:32:47;;;;;;;10.80;5.60;;;;;;;;;;5033120;28;20041;-64
2022/02/27 02:35:13;;;;;;;10.63;5.63;;;;;;;;;;5027209;28;20026;-65
2022/02/27 02:37:39;;;;;;;13.55;5.75;;;;;;;;;;5012766;28;20036;-65
2022/02/27 02:40:06;;;;;;;12.88;5.88;;;;;;;;;;5011635;28;20022;-64
2022/02/27 02:42:32;;;;;;;10.75;5.60;;;;;;;;;;5012425;28;20029;-64
2022/02/27 02:44:58;;;;;;;10.43;5.32;;;;;;;;;;5011918;28;20038;-65
2022/02/27 02:47:24;;;;;;;10.68;5.55;;;;;;;;;;5011463;28;20049;-65
2022/02/27 02:49:50;;;;;;;10.35;5.07;;;;;;;;;;5022804;28;20053;-65
2022/02/27 02:52:16;;;;;;;12.43;5.70;;;;;;;;;;5032055;28;20041;-65
2022/02/27 02:54:42;;;;;;;14.05;5.68;;;;;;;;;;5031790;28;20457;-65
2022/02/27 02:57:08;;;;;;;9.30;5.05;;;;;;;;;;5031874;28;20033;-65
2022/02/27 02:59:34;;;;;;;13.05;5.03;;;;;;;;;;5031531;28;20025;-63
2022/02/27 03:02:00;;;;;;;11.40;5.65;;;;;;;;;;5020452;28;20519;-64
2022/02/27 03:04:26;;;;;;;12.18;5.80;;;;;;;;;;5019246;28;20029;-64
2022/02/27 03:06:52;;;;;;;9.40;5.32;;;;;;;;;;5023351;28;20085;-64
2022/02/27 03:09:18;;;;;;;11.88;5.30;;;;;;;;;;5031651;28;20083;-64
2022/02/27 03:11:44;;;;;;;9.80;5.45;;;;;;;;;;5031660;28;20457;-65
2022/02/27 03:14:10;;;;;;;9.45;5.47;;;;;;;;;;5032036;28;20064;-64
2022/02/27 03:16:36;;;;;;;12.45;5.13;;;;;;;;;;5031579;28;20027;-65
2022/02/27 03:19:02;;;;;;;10.23;5.05;;;;;;;;;;5031661;28;20076;-65
2022/02/27 03:21:28;;;;;;;11.40;5.28;;;;;;;;;;5005345;28;20385;-65
2022/02/27 03:23:54;;;;;;;10.20;5.90;;;;;;;;;;5012133;28;20495;-65
2022/02/27 03:26:21;;;;;;;9.90;4.63;;;;;;;;;;5011915;28;20393;-65
2022/02/27 03:28:47;;;;;;;11.77;5.07;;;;;;;;;;5012065;28;20032;-64
2022/02/27 03:31:13;;;;;;;10.27;4.78;;;;;;;;;;5011934;28;20030;-65
2022/02/27 03:33:39;;;;;;;12.20;5.32;;;;;;;;;;5012303;28;20026;-64
2022/02/27 03:36:05;;;;;;;12.25;5.63;;;;;;;;;;5000006;28;20022;-64
2022/02/27 03:38:31;;;;;;;10.05;5.32;;;;;;;;;;4992698;28;20030;-64
2022/02/27 03:40:57;;;;;;;10.18;4.97;;;;;;;;;;4991881;28;20085;-64
2022/02/27 03:43:23;;;;;;;9.82;5.10;;;;;;;;;;4992498;28;20113;-65
2022/02/27 03:45:49;;;;;;;10.35;4.63;;;;;;;;;;4992229;28;20030;-64
2022/02/27 03:48:15;;;;;;;15.35;5.30;;;;;;;;;;4977715;28;20034;-65
2022/02/27 03:50:41;;;;;;;7.70;4.35;;;;;;;;;;4995994;28;20073;-65
2022/02/27 03:53:07;;;;;;;10.43;5.65;;;;;;;;;;4995804;28;20042;-65
2022/02/27 03:55:33;;;;;;;9.70;4.45;;;;;;;;;;5012656;28;20057;-65
2022/02/27 03:57:59;;;;;;;7.65;4.57;;;;;;;;;;5027701;28;20112;-64
2022/02/27 04:00:26;;;;;;;9.00;4.75;;;;;;;;;;5035067;28;20101;-64
2022/02/27 04:02:52;;;;;;;9.32;4.82;;;;;;;;;;5015986;28;20022;-65
2022/02/27 04:05:19;;;;;;;11.07;4.60;;;;;;;;;;5015013;28;20038;-65
2022/02/27 04:07:45;;;;;;;10.18;4.20;;;;;;;;;;5015114;28;20025;-65
2022/02/27 04:10:11;;;;;;;13.18;5.00;;;;;;;;;;5014914;28;20037;-65
2022/02/27 04:12:37;;;;;;;10.82;4.80;;;;;;;;;;5014708;28;20091;-65
2022/02/27 04:15:04;;;;;;;8.70;4.57;;;;;;;;;;5014834;28;20017;-65
2022/02/27 04:17:31;;;;;;;11.23;4.22;;;;;;;;;;5014465;28;20054;-65
2022/02/27 04:19:57;;;;;;;10.27;4.22;;;;;;;;;;5012403;28;20038;-64
2022/02/27 04:22:23;;;;;;;8.35;4.13;;;;;;;;;;5013767;28;20041;-64
2022/02/27 04:24:49;;;;;;;10.70;4.50;;;;;;;;;;5025361;28;20013;-65
2022/02/27 04:27:16;;;;;;;11.32;4.43;;;;;;;;;;5034760;28;20369;-65
2022/02/27 04:29:42;;;;;;;8.77;4.35;;;;;;;;;;5034504;28;20465;-64
2022/02/27 04:32:08;;;;;;;9.32;4.35;;;;;;;;;;5034185;28;20111;-65
2022/02/27 04:34:34;;;;;;;8.73;4.72;;;;;;;;;;5034409;28;20040;-65
2022/02/27 04:37:00;;;;;;;9.68;5.10;;;;;;;;;;5014441;28;20033;-65
2022/02/27 04:39:26;;;;;;;8.80;4.72;;;;;;;;;;5014369;28;20034;-65
2022/02/27 04:41:52;;;;;;;33.67;4.75;;;;;;;;;;5013734;28;20029;-64
2022/02/27 04:44:18;;;;;;;8.95;4.10;;;;;;;;;;4996762;28;20018;-67
2022/02/27 04:46:44;;;;;;;16.60;4.47;;;;;;;;;;5014410;28;20026;-64
2022/02/27 04:49:10;;;;;;;18.42;4.18;;;;;;;;;;4996547;28;20369;-65
2022/02/27 04:51:36;;;;;;;16.45;4.63;;;;;;;;;;4996528;28;20148;-65
2022/02/27 04:54:02;;;;;;;15.23;4.65;;;;;;;;;;5014047;28;20029;-65
2022/02/27 04:56:28;;;;;;;11.13;4.45;;;;;;;;;;5021322;28;20029;-65
2022/02/27 04:58:54;;;;;;;19.33;5.03;;;;;;;;;;5025164;28;20093;-65
2022/02/27 05:01:20;;;;;;;14.10;4.10;;;;;;;;;;5027531;28;20018;-64
2022/02/27 05:03:46;;;;;;;10.20;3.72;;;;;;;;;;5014164;28;20083;-65
2022/02/27 05:06:14;;;;;;;8.45;3.85;;;;;;;;;;5013913;28;20088;-64
2022/02/27 05:08:40;;;;;;;10.15;3.75;;;;;;;;;;5013978;28;20031;-64
2022/02/27 05:11:06;;;;;;;12.32;3.53;;;;;;;;;;5013833;28;20113;-65
2022/02/27 05:13:32;;;;;;;9.05;3.50;;;;;;;;;;5020729;28;20037;-65
2022/02/27 05:15:58;;;;;;;11.15;3.58;;;;;;;;;;5005910;28;20088;-65
2022/02/27 05:18:25;;;;;;;18.65;3.65;;;;;;;;;;5004789;28;20022;-65
2022/02/27 05:20:51;;;;;;;10.40;3.05;;;;;;;;;;5004988;28;20026;-65
2022/02/27 05:23:17;;;;;;;14.32;3.92;;;;;;;;;;4982482;28;20105;-65
2022/02/27 05:25:43;;;;;;;18.90;3.83;;;;;;;;;;4994757;28;20069;-65
2022/02/27 05:28:09;;;;;;;13.32;3.75;;;;;;;;;;4994413;28;20030;-66
2022/02/27 05:30:35;;;;;;;10.90;3.55;;;;;;;;;;5019792;28;20022;-65
2022/02/27 05:33:02;;;;;;;16.58;3.75;;;;;;;;;;5033227;28;20029;-65
2022/02/27 05:35:28;;;;;;;10.18;3.90;;;;;;;;;;5026419;28;20037;-66
2022/02/27 05:37:54;;;;;;;12.70;3.20;;;;;;;;;;5013591;28;20033;-66
2022/02/27 05:40:20;;;;;;;8.70;3.70;;;;;;;;;;4995458;28;20053;-65
2022/02/27 05:42:46;;;;;;;9.93;3.17;;;;;;;;;;5013550;28;20053;-65
2022/02/27 05:45:12;;;;;;;10.05;3.83;;;;;;;;;;5013641;28;20053;-65
2022/02/27 05:47:38;;;;;;;11.63;3.42;;;;;;;;;;5013582;28;20037;-63
2022/02/27 05:50:05;;;;;;;13.05;3.38;;;;;;;;;;5012228;28;20424;-63
2022/02/27 05:52:31;;;;;;;6.07;3.13;;;;;;;;;;4984714;28;20409;-64
2022/02/27 05:54:57;;;;;;;7.50;2.72;;;;;;;;;;5003214;28;20117;-64
2022/02/27 05:57:23;;;;;;;7.22;2.90;;;;;;;;;;5001549;28;20109;-64
2022/02/27 05:59:49;;;;;;;6.95;3.30;;;;;;;;;;5002388;28;20025;-65
2022/02/27 06:02:15;;;;;;;5.40;2.90;;;;;;;;;;5012430;28;20030;-65
2022/02/27 06:04:41;;;;;;;17.42;3.30;;;;;;;;;;5024352;28;20025;-65
2022/02/27 06:07:07;;;;;;;15.63;3.65;;;;;;;;;;5021488;28;20108;-65
2022/02/27 06:09:33;;;;;;;8.45;2.95;;;;;;;;;;5003266;28;20025;-64
2022/02/27 06:11:59;;;;;;;5.60;2.50;;;;;;;;;;4993659;28;20505;-64
2022/02/27 06:14:25;;;;;;;5.63;2.55;;;;;;;;;;4993364;28;20366;-65
2022/02/27 06:16:51;;;;;;;6.70;2.88;;;;;;;;;;4993042;28;20041;-65
2022/02/27 06:19:17;;;;;;;10.35;2.88;;;;;;;;;;4993167;28;20046;-66
2022/02/27 06:21:43;;;;;;;4.50;2.58;;;;;;;;;;4995711;28;20442;-65
2022/02/27 06:24:09;;;;;;;10.18;3.38;;;;;;;;;;5003851;28;20030;-65
2022/02/27 06:26:35;;;;;;;10.57;2.85;;;;;;;;;;5001250;28;20014;-65
2022/02/27 06:29:02;;;;;;;10.65;2.97;;;;;;;;;;5001998;28;20124;-66
2022/02/27 06:31:28;;;;;;;6.03;2.92;;;;;;;;;;5011174;28;20779;-65
2022/02/27 06:33:54;;;;;;;8.75;3.33;;;;;;;;;;5008408;28;20046;-65
2022/02/27 06:36:21;;;;;;;11.13;2.75;;;;;;;;;;5004006;28;20037;-64
2022/02/27 06:38:47;;;;;;;8.10;2.72;;;;;;;;;;5003355;28;20370;-64
2022/02/27 06:41:15;;;;;;;7.35;2.80;;;;;;;;;;4995184;28;20544;-63
2022/02/27 06:43:41;;;;;;;7.60;2.83;;;;;;;;;;4992913;28;20026;-64
2022/02/27 06:46:07;;;;;;;11.23;2.80;;;;;;;;;;4992811;28;20032;-64
2022/02/27 06:48:33;;;;;;;9.80;2.95;;;;;;;;;;4993338;28;20105;-64
2022/02/27 06:51:00;;;;;;;9.60;2.83;;;;;;;;;;4992692;28;20101;-64
2022/02/27 06:53:26;;;;;;;8.88;2.60;;;;;;;;;;4992766;28;20471;-64
2022/02/27 06:55:52;;;;;;;8.60;2.95;;;;;;;;;;4992655;28;20085;-63
2022/02/27 06:58:18;;;;;;;6.22;2.95;;;;;;;;;;4992742;28;20039;-63
2022/02/27 07:00:45;;;;;;;6.78;2.55;;;;;;;;;;4993794;28;20462;-64
2022/02/27 07:03:11;;;;;;;7.18;2.83;;;;;;;;;;5018945;28;20485;-64
2022/02/27 07:05:37;;;;;;;5.75;2.72;;;;;;;;;;5029386;28;20094;-64
2022/02/27 07:08:04;;;;;;;10.20;3.05;;;;;;;;;;5031905;28;20029;-64
2022/02/27 07:10:29;;;;;;;6.28;2.72;;;;;;;;;;5032110;28;20029;-64
2022/02/27 07:12:55;;;;;;;4.85;2.20;;;;;;;;;;5031639;28;20041;-65
2022/02/27 07:15:21;;;;;;;5.90;2.72;;;;;;;;;;5032016;28;20464;-63
2022/02/27 07:17:47;;;;;;;10.05;3.08;;;;;;;;;;5031228;28;20151;-65
2022/02/27 07:20:14;;;;;;;5.97;2.95;;;;;;;;;;5023749;28;20112;-65
2022/02/27 07:22:39;;;;;;;3.92;2.25;;;;;;;;;;5010339;28;20073;-65
2022/02/27 07:25:06;;;;;;;6.82;2.85;;;;;;;;;;5003890;28;20117;-66
2022/02/27 07:27:32;;;;;;;7.68;2.55;;;;;;;;;;5006398;28;20034;-66
2022/02/27 07:29:59;;;;;;;7.43;2.70;;;;;;;;;;4999248;28;20026;-64
2022/02/27 07:32:25;;;;;;;4.68;2.70;;;;;;;;;;5001140;28;20042;-64
2022/02/27 07:34:51;;;;;;;8.18;3.25;;;;;;;;;;4998307;28;20034;-64
2022/02/27 07:37:17;;;;;;;4.72;2.45;;;;;;;;;;5021434;28;20029;-64
2022/02/27 07:39:43;;;;;;;5.93;2.92;;;;;;;;;;5027174;28;20412;-64
2022/02/27 07:42:09;;;;;;;8.80;3.03;;;;;;;;;;5035004;28;20028;-63
2022/02/27 07:44:35;;;;;;;7.00;3.38;;;;;;;;;;5035146;28;20037;-64
2022/02/27 07:47:01;;;;;;;11.57;3.03;;;;;;;;;;5035052;28;20457;-64
2022/02/27 07:49:27;;;;;;;16.48;3.28;;;;;;;;;;5017436;28;20025;-65
2022/02/27 07:51:53;;;;;;;7.60;3.05;;;;;;;;;;5034933;28;20025;-63
2022/02/27 07:54:20;;;;;;;6.78;3.00;;;;;;;;;;5035211;28;20531;-65
2022/02/27 07:56:46;;;;;;;8.98;3.08;;;;;;;;;;5024883;28;20037;-64
2022/02/27 07:59:12;;;;;;;9.75;3.40;;;;;;;;;;5005659;28;20022;-64
2022/02/27 08:01:38;;;;;;;8.73;2.72;;;;;;;;;;5003292;28;20022;-64
2022/02/27 08:04:05;;;;;;;27.77;3.40;;;;;;;;;;4995250;28;20043;-67
2022/02/27 08:06:32;;;;;;;45.67;4.57;;;;;;;;;;5004071;28;20071;-68
2022/02/27 08:09:01;;;;;;;16.88;4.00;;;;;;;;;;5022563;28;20033;-69
2022/02/27 08:11:28;;;;;;;24.50;3.78;;;;;;;;;;5004880;28;20104;-70
2022/02/27 08:13:54;;;;;;;27.90;4.68;;;;;;;;;;4999596;28;20034;-69
2022/02/27 08:16:20;;;;;;;13.95;4.15;;;;;;;;;;5001495;28;20048;-70
2022/02/27 08:18:46;;;;;;;10.98;4.22;;;;;;;;;;5009562;28;20030;-69
2022/02/27 08:21:12;;;;;;;10.70;4.57;;;;;;;;;;5005982;28;20026;-70
2022/02/27 08:23:38;;;;;;;18.80;4.63;;;;;;;;;;4998868;28;20393;-71
2022/02/27 08:26:04;;;;;;;21.70;4.30;;;;;;;;;;4995624;28;20084;-69
2022/02/27 08:28:31;;;;;;;15.05;4.20;;;;;;;;;;4995685;28;20058;-70
2022/02/27 08:30:57;;;;;;;12.55;4.80;;;;;;;;;;4995380;28;20026;-70
2022/02/27 08:33:23;;;;;;;18.23;4.85;;;;;;;;;;4994540;28;20041;-69
2022/02/27 08:35:49;;;;;;;20.00;4.78;;;;;;;;;;5002874;28;20374;-69
2022/02/27 08:38:15;;;;;;;14.85;4.53;;;;;;;;;;4993162;28;20627;-69
2022/02/27 08:40:41;;;;;;;9.30;4.00;;;;;;;;;;5014078;28;20026;-70
2022/02/27 08:43:07;;;;;;;14.30;4.45;;;;;;;;;;5012854;28;20046;-72
2022/02/27 08:45:33;;;;;;;14.55;4.88;;;;;;;;;;4995084;28;20026;-69
2022/02/27 08:47:59;;;;;;;10.20;4.55;;;;;;;;;;4994876;28;20113;-68
2022/02/27 08:50:25;;;;;;;25.25;4.75;;;;;;;;;;4995095;28;20019;-69
2022/02/27 08:52:51;;;;;;;8.85;4.57;;;;;;;;;;4994976;28;20042;-68
2022/02/27 08:55:17;;;;;;;22.65;4.57;;;;;;;;;;4995013;28;20440;-70
2022/02/27 08:57:44;;;;;;;10.30;4.07;;;;;;;;;;4995176;28;20030;-68
2022/02/27 09:00:11;;;;;;;11.13;4.32;;;;;;;;;;4995248;28;20030;-69
2022/02/27 09:02:38;;;;;;;11.10;4.30;;;;;;;;;;4994931;28;20441;-69
2022/02/27 09:05:05;;;;;;;11.35;3.88;;;;;;;;;;5003289;28;20033;-69
2022/02/27 09:07:31;;;;;;;11.88;3.83;;;;;;;;;;5015377;28;20026;-71
2022/02/27 09:09:57;;;;;;;8.35;3.67;;;;;;;;;;5015006;28;20018;-70
2022/02/27 09:12:23;;;;;;;12.15;4.15;;;;;;;;;;5014483;28;20116;-69
2022/02/27 09:14:49;;;;;;;9.40;3.72;;;;;;;;;;5014539;28;20465;-70
2022/02/27 09:17:15;;;;;;;11.07;4.20;;;;;;;;;;5013843;28;20074;-70
2022/02/27 09:19:41;;;;;;;8.73;3.58;;;;;;;;;;5014734;28;20374;-70
2022/02/27 09:22:07;;;;;;;10.32;3.83;;;;;;;;;;5025849;28;20029;-70
2022/02/27 09:24:33;;;;;;;11.38;3.92;;;;;;;;;;5034326;28;20147;-69
2022/02/27 09:26:59;;;;;;;8.40;3.90;;;;;;;;;;5034756;28;20113;-69
2022/02/27 09:29:25;;;;;;;9.52;4.20;;;;;;;;;;5034262;28;20053;-70
2022/02/27 09:31:52;;;;;;;11.02;3.45;;;;;;;;;;5035723;28;20038;-70
2022/02/27 09:34:18;;;;;;;12.07;3.67;;;;;;;;;;5031771;28;20029;-69
2022/02/27 09:36:44;;;;;;;9.60;3.35;;;;;;;;;;5024252;28;20025;-69
2022/02/27 09:39:10;;;;;;;8.15;3.65;;;;;;;;;;5035400;28;20037;-69
2022/02/27 09:41:36;;;;;;;7.05;3.35;;;;;;;;;;5015161;28;20037;-69
2022/02/27 09:44:04;;;;;;;6.47;3.03;;;;;;;;;;5040312;28;20026;-71
2022/02/27 09:46:31;;;;;;;7.32;3.13;;;;;;;;;;5033953;28;20072;-70
2022/02/27 09:48:58;;;;;;;6.90;3.10;;;;;;;;;;5033349;28;20100;-69
2022/02/27 09:51:24;;;;;;;6.07;3.10;;;;;;;;;;5033185;28;20091;-69
2022/02/27 09:53:51;;;;;;;6.32;2.92;;;;;;;;;;5023546;28;20117;-68
2022/02/27 09:56:17;;;;;;;6.93;2.88;;;;;;;;;;5028245;28;20554;-68
2022/02/27 09:58:43;;;;;;;12.15;3.40;;;;;;;;;;5033516;28;20028;-69
2022/02/27 10:01:09;;;;;;;9.48;2.90;;;;;;;;;;5010447;28;20014;-66
2022/02/27 10:03:36;;;;;;;12.65;3.05;;;;;;;;;;5013829;28;20034;-68
2022/02/27 10:06:02;;;;;;;11.43;3.20;;;;;;;;;;5013804;28;20050;-67
2022/02/27 10:08:42;;;;;;;8.93;3.03;;;;;;;;;;5013074;28;20044;-67
2022/02/27 10:11:10;;;;;;;12.55;3.42;;;;;;;;;;5013095;28;20030;-68
2022/02/27 10:13:37;;;;;;;14.45;3.00;;;;;;;;;;5013023;28;20044;-68
2022/02/27 10:16:09;;;;;;;10.15;3.15;;;;;;;;;;5012948;28;20022;-67
2022/02/27 10:18:55;;;;;;;15.98;3.55;;;;;;;;;;5013022;28;20125;-67
2022/02/27 10:21:23;;;;;;;7.15;2.60;;;;;;;;;;4994913;28;20109;-68
2022/02/27 10:23:56;;;;;;;17.70;3.00;;;;;;;;;;4997188;28;20109;-69
2022/02/27 10:26:24;;;;;;;20.50;3.15;;;;;;;;;;5014258;28;20141;-69
2022/02/27 10:29:02;;;;;;;10.48;2.63;;;;;;;;;;5005642;28;20025;-68
2022/02/27 10:31:29;;;;;;;12.50;3.05;;;;;;;;;;5005134;28;20484;-69
2022/02/27 10:33:58;;;;;;;10.43;3.05;;;;;;;;;;5003969;28;20037;-69
2022/02/27 10:36:24;;;;;;;25.63;3.35;;;;;;;;;;5004673;28;20428;-69
2022/02/27 10:38:53;;;;;;;31.05;3.03;;;;;;;;;;4993041;28;20433;-69
2022/02/27 10:41:21;;;;;;;19.02;3.47;;;;;;;;;;5002609;28;20091;-67
2022/02/27 10:43:48;;;;;;;30.92;4.15;;;;;;;;;;5006954;28;20109;-69
2022/02/27 10:46:15;;;;;;;22.00;2.90;;;;;;;;;;5009243;28;20030;-67
2022/02/27 10:48:42;;;;;;;24.83;3.90;;;;;;;;;;4996722;28;20402;-64
2022/02/27 10:51:09;;;;;;;16.77;3.30;;;;;;;;;;4993164;28;20030;-71
2022/02/27 10:53:40;;;;;;;26.15;3.30;;;;;;;;;;4995818;28;20059;-72
2022/02/27 10:56:06;;;;;;;35.35;4.10;;;;;;;;;;4992928;28;20026;-66
2022/02/27 10:58:42;;;;;;;23.00;3.33;;;;;;;;;;5004923;28;20029;-64
2022/02/27 13:14:15;;;;;;;61.55;3.92;;;;;;;;;;5095248;27;20386;-70
2022/02/27 13:16:41;;;;;;;73.78;3.25;;;;;;;;;;5089858;28;20086;-68
2022/02/27 13:19:08;;;;;;;48.65;2.65;;;;;;;;;;5089763;28;20036;-70
2022/02/27 13:21:35;;;;;;;35.20;3.20;;;;;;;;;;5090483;28;20032;-69
2022/02/27 13:24:02;;;;;;;67.75;3.20;;;;;;;;;;5089863;28;20111;-70
2022/02/27 13:26:29;;;;;;;58.80;2.35;;;;;;;;;;5070793;28;20039;-69
2022/02/27 13:28:56;;;;;;;33.17;2.75;;;;;;;;;;5090073;28;20036;-68
2022/02/27 13:31:23;;;;;;;27.13;2.60;;;;;;;;;;5089847;28;20090;-71
2022/02/27 13:33:50;;;;;;;41.10;3.47;;;;;;;;;;5090094;28;20036;-72
2022/02/27 13:36:18;;;;;;;58.83;2.92;;;;;;;;;;5090679;28;20024;-79
2022/02/27 13:38:46;;;;;;;29.92;2.67;;;;;;;;;;5073932;28;20148;-70
2022/02/27 13:41:12;;;;;;;41.22;2.83;;;;;;;;;;5089293;28;20067;-69
2022/02/27 13:43:40;;;;;;;18.98;2.50;;;;;;;;;;5089316;28;20068;-71
2022/02/27 13:46:06;;;;;;;14.27;2.75;;;;;;;;;;5089835;28;20036;-69
2022/02/27 13:48:33;;;;;;;16.92;2.92;;;;;;;;;;5089085;28;20051;-71
2022/02/27 13:51:00;;;;;;;26.48;2.75;;;;;;;;;;5084538;28;20068;-69
2022/02/27 13:53:30;;;;;;;21.85;2.38;;;;;;;;;;5088332;28;20056;-71
2022/02/27 13:56:07;;;;;;;18.30;2.20;;;;;;;;;;5073046;28;20043;-70
2022/02/27 13:58:33;;;;;;;12.88;2.42;;;;;;;;;;5088266;28;20033;-70
2022/02/27 14:01:03;;;;;;;11.70;2.10;;;;;;;;;;5089001;28;20036;-71
2022/02/27 14:03:36;;;;;;;12.07;2.20;;;;;;;;;;5089221;28;20035;-71
2022/02/27 14:06:04;;;;;;;5.53;1.95;;;;;;;;;;5089248;28;20048;-71
2022/02/27 14:08:33;;;;;;;13.10;2.28;;;;;;;;;;5089608;28;20143;-71
2022/02/27 14:11:06;;;;;;;10.90;2.30;;;;;;;;;;5089026;28;20032;-70
2022/02/27 14:13:32;;;;;;;7.65;2.05;;;;;;;;;;5088570;28;20048;-71
2022/02/27 14:16:01;;;;;;;3.40;1.60;;;;;;;;;;5088671;28;20027;-72
2022/02/27 14:18:32;;;;;;;12.55;2.67;;;;;;;;;;5071044;28;20069;-73
2022/02/27 14:21:01;;;;;;;12.82;1.85;;;;;;;;;;5089344;28;20214;-78
2022/02/27 14:23:30;;;;;;;11.13;1.70;;;;;;;;;;5088102;28;20024;-72
2022/02/27 14:25:56;;;;;;;6.90;1.73;;;;;;;;;;5079194;28;20056;-72
2022/02/27 14:28:23;;;;;;;6.65;1.73;;;;;;;;;;5059372;28;20098;-72
2022/02/27 14:30:49;;;;;;;9.65;1.88;;;;;;;;;;5075053;28;20020;-72
2022/02/27 14:33:17;;;;;;;8.27;1.95;;;;;;;;;;5077094;28;20033;-72
2022/02/27 14:35:44;;;;;;;3.97;1.63;;;;;;;;;;5084641;28;20024;-70
2022/02/27 14:38:11;;;;;;;10.10;1.90;;;;;;;;;;5094666;28;20126;-69
2022/02/27 14:40:38;;;;;;;8.50;2.10;;;;;;;;;;5094809;28;20099;-69
2022/02/27 14:43:04;;;;;;;5.93;2.10;;;;;;;;;;5094789;28;20747;-68
2022/02/27 14:45:31;;;;;;;5.68;1.73;;;;;;;;;;5075724;28;20477;-71
2022/02/27 14:47:57;;;;;;;4.25;1.60;;;;;;;;;;5074808;28;20017;-71
2022/02/27 14:50:24;;;;;;;8.05;1.90;;;;;;;;;;5074674;28;20021;-71
2022/02/27 14:52:50;;;;;;;7.65;1.42;;;;;;;;;;5074271;28;20039;-69
2022/02/27 14:55:16;;;;;;;8.70;1.70;;;;;;;;;;5074689;28;20099;-70
2022/02/27 14:57:42;;;;;;;7.82;1.70;;;;;;;;;;5074517;28;20032;-70
2022/02/27 15:00:14;;;;;;;3.17;1.38;;;;;;;;;;5074374;28;20033;-71
2022/02/27 15:02:40;;;;;;;4.03;1.48;;;;;;;;;;5074746;28;20037;-71
2022/02/27 15:05:07;;;;;;;5.20;1.65;;;;;;;;;;5073811;28;20483;-70
2022/02/27 15:07:33;;;;;;;6.78;1.75;;;;;;;;;;5072400;28;20039;-71
2022/02/27 15:09:59;;;;;;;13.90;1.80;;;;;;;;;;5073549;28;20020;-71
2022/02/27 15:12:26;;;;;;;3.70;1.42;;;;;;;;;;5072516;28;20044;-72
2022/02/27 15:14:52;;;;;;;2.42;1.30;;;;;;;;;;5074610;28;20056;-71
2022/02/27 15:17:18;;;;;;;6.60;1.58;;;;;;;;;;5075093;28;20071;-70
2022/02/27 15:19:44;;;;;;;6.40;1.65;;;;;;;;;;5075468;28;20108;-70
2022/02/27 15:22:10;;;;;;;3.03;1.38;;;;;;;;;;5055934;28;20094;-70
2022/02/27 15:24:36;;;;;;;3.80;1.52;;;;;;;;;;5074203;28;20107;-70
2022/02/27 15:27:02;;;;;;;5.63;1.40;;;;;;;;;;5074238;28;20020;-70
2022/02/27 15:29:29;;;;;;;5.15;1.90;;;;;;;;;;5073734;28;20491;-70
2022/02/27 15:31:55;;;;;;;4.25;1.77;;;;;;;;;;5073754;28;20470;-70
2022/02/27 15:34:21;;;;;;;5.57;1.38;;;;;;;;;;5073107;28;20029;-68
2022/02/27 15:36:46;;;;;;;3.05;1.70;;;;;;;;;;5072561;28;20392;-70
2022/02/27 15:39:13;;;;;;;3.72;1.63;;;;;;;;;;5073617;28;20020;-71
2022/02/27 15:41:39;;;;;;;3.22;1.38;;;;;;;;;;5073674;28;20078;-70
2022/02/27 15:44:05;;;;;;;2.83;1.38;;;;;;;;;;5073707;28;20556;-71
2022/02/27 15:46:31;;;;;;;3.85;1.30;;;;;;;;;;5073220;28;20025;-71
2022/02/27 15:48:57;;;;;;;4.63;1.70;;;;;;;;;;5073732;28;20070;-70
2022/02/27 15:51:24;;;;;;;4.28;1.60;;;;;;;;;;5073033;28;20032;-70
2022/02/27 15:53:50;;;;;;;4.40;1.60;;;;;;;;;;5081436;28;20037;-71
2022/02/27 15:56:17;;;;;;;4.55;1.38;;;;;;;;;;5073469;28;20099;-70
2022/02/27 15:58:43;;;;;;;1.98;1.33;;;;;;;;;;5073527;28;20480;-70
2022/02/27 16:01:10;;;;;;;2.53;1.50;;;;;;;;;;5073366;28;20488;-71
2022/02/27 16:03:36;;;;;;;3.10;1.30;;;;;;;;;;5073443;28;20031;-71
2022/02/27 16:06:03;;;;;;;7.03;1.27;;;;;;;;;;5055662;28;20469;-70
2022/02/27 16:08:30;;;;;;;3.90;1.52;;;;;;;;;;5068005;28;20080;-71
2022/02/27 16:10:56;;;;;;;1.52;1.00;;;;;;;;;;5072944;28;20754;-69
2022/02/27 16:13:21;;;;;;;1.83;1.08;;;;;;;;;;5072761;28;20144;-71
2022/02/27 16:15:47;;;;;;;5.80;1.38;;;;;;;;;;5073064;28;20027;-70
2022/02/27 16:18:14;;;;;;;2.45;1.20;;;;;;;;;;5072765;28;20037;-70
2022/02/27 16:20:40;;;;;;;2.08;1.20;;;;;;;;;;5072633;28;20344;-68
2022/02/27 16:23:05;;;;;;;2.95;1.50;;;;;;;;;;5071626;28;20033;-67
2022/02/27 16:25:32;;;;;;;3.05;1.20;;;;;;;;;;5054707;28;20027;-70
2022/02/27 16:27:57;;;;;;;5.22;1.20;;;;;;;;;;5072800;28;20025;-69
2022/02/27 16:30:24;;;;;;;3.13;1.25;;;;;;;;;;5055000;28;20028;-70
2022/02/27 16:32:50;;;;;;;1.80;1.25;;;;;;;;;;5072506;28;20040;-70
2022/02/27 16:35:16;;;;;;;2.50;1.20;;;;;;;;;;5078128;28;20016;-71
2022/02/27 16:37:42;;;;;;;1.98;1.45;;;;;;;;;;5074538;28;20107;-69
2022/02/27 16:40:08;;;;;;;4.40;1.30;;;;;;;;;;5092711;28;20130;-70
2022/02/27 16:42:34;;;;;;;1.88;1.20;;;;;;;;;;5092463;28;20044;-70
2022/02/27 16:45:00;;;;;;;2.20;1.27;;;;;;;;;;5092855;28;20404;-68